Time;durP1;ratioP1;P1;durP2;ratioP2;P2;SDS_P1;SDS_P2;PMS_P1;PMS_P2;Temp;Humidity;BMP_temperature;BMP_pressure;BME280_temperature;BME280_humidity;BME280_pressure;Samples;Min_cycle;Max_cycle;Signal;HPM_P1;HPM_P2
2022/05/25 00:00:36;;;;;;;1.15;0.60;;;16.00;86.00;;;;;;5021203;28;20043;-86
2022/05/25 00:03:02;;;;;;;0.88;0.55;;;16.00;86.40;;;;;;5025847;28;20407;-85
2022/05/25 00:05:30;;;;;;;1.30;0.55;;;15.90;86.80;;;;;;5023081;28;20036;-87
2022/05/25 00:07:57;;;;;;;2.38;0.60;;;15.90;87.00;;;;;;5018934;28;20069;-86
2022/05/25 00:10:23;;;;;;;1.30;0.40;;;15.90;86.90;;;;;;5025928;28;20039;-87
2022/05/25 00:12:48;;;;;;;2.95;0.80;;;15.80;86.90;;;;;;5022241;28;20113;-85
2022/05/25 00:15:14;;;;;;;0.75;0.50;;;15.80;87.00;;;;;;5026479;28;20037;-86
2022/05/25 00:17:40;;;;;;;1.27;0.70;;;15.70;87.10;;;;;;5027025;28;20088;-86
2022/05/25 00:20:07;;;;;;;0.60;0.50;;;15.60;87.20;;;;;;5029165;28;20042;-87
2022/05/25 00:22:48;;;;;;;0.55;0.45;;;15.60;87.40;;;;;;5026583;28;20057;-85
2022/05/25 00:25:30;;;;;;;1.27;0.38;;;15.60;87.20;;;;;;5029319;28;20091;-85
2022/05/25 00:27:56;;;;;;;1.38;0.52;;;15.60;87.20;;;;;;5028129;28;20120;-86
2022/05/25 00:30:23;;;;;;;2.13;0.50;;;15.60;87.20;;;;;;5027394;28;20116;-85
2022/05/25 00:32:49;;;;;;;0.98;0.50;;;15.60;87.40;;;;;;5025311;28;20028;-86
2022/05/25 00:35:18;;;;;;;2.78;0.70;;;15.50;87.10;;;;;;5027223;28;20042;-86
2022/05/25 00:37:44;;;;;;;0.45;0.30;;;15.50;87.40;;;;;;5018977;28;20256;-86
2022/05/25 00:40:21;;;;;;;1.10;0.55;;;15.60;87.50;;;;;;5026496;28;20048;-86
2022/05/25 00:42:46;;;;;;;1.10;0.40;;;15.50;87.40;;;;;;5030145;28;20497;-84
2022/05/25 00:45:13;;;;;;;0.70;0.50;;;15.50;87.60;;;;;;5022125;28;20033;-85
2022/05/25 00:47:41;;;;;;;0.52;0.45;;;15.50;87.90;;;;;;5027614;28;20061;-85
2022/05/25 00:50:10;;;;;;;1.17;0.60;;;15.40;88.20;;;;;;5028781;28;20036;-85
2022/05/25 00:52:38;;;;;;;0.82;0.50;;;15.40;88.30;;;;;;5026904;28;20496;-85
2022/05/25 00:55:07;;;;;;;1.10;0.60;;;15.40;88.20;;;;;;5032554;28;20604;-85
2022/05/25 00:57:36;;;;;;;2.33;0.47;;;15.40;88.50;;;;;;5032604;28;20037;-85
2022/05/25 01:00:13;;;;;;;0.60;0.50;;;15.40;88.60;;;;;;5029393;28;20052;-85
2022/05/25 01:02:44;;;;;;;1.77;0.50;;;15.40;88.60;;;;;;5029703;28;20105;-85
2022/05/25 01:05:12;;;;;;;1.95;0.70;;;15.40;88.90;;;;;;5026977;28;20541;-86
2022/05/25 01:08:06;;;;;;;0.73;0.50;;;15.40;89.30;;;;;;5029889;28;20036;-85
2022/05/25 01:10:54;;;;;;;0.75;0.40;;;15.40;89.30;;;;;;5024126;28;20037;-85
2022/05/25 01:13:26;;;;;;;0.85;0.63;;;15.40;89.40;;;;;;5031896;28;20460;-84
2022/05/25 01:16:08;;;;;;;0.65;0.55;;;15.40;89.40;;;;;;5030641;28;20026;-85
2022/05/25 01:19:05;;;;;;;1.15;0.50;;;15.40;89.60;;;;;;5028193;28;20021;-85
2022/05/25 01:21:50;;;;;;;1.23;0.50;;;15.50;89.70;;;;;;5024516;28;20061;-85
2022/05/25 01:24:38;;;;;;;8.20;0.90;;;15.40;90.00;;;;;;5044659;28;20065;-85
2022/05/25 01:27:19;;;;;;;0.60;0.45;;;15.40;90.10;;;;;;5023204;28;20125;-84
2022/05/25 01:30:08;;;;;;;1.92;0.80;;;15.40;90.20;;;;;;5029978;28;20037;-85
2022/05/25 01:32:41;;;;;;;1.50;0.65;;;15.40;90.20;;;;;;5022242;28;20030;-85
2022/05/25 01:35:22;;;;;;;0.85;0.57;;;15.30;90.30;;;;;;5028991;28;20040;-85
2022/05/25 01:38:08;;;;;;;1.05;0.60;;;15.30;90.40;;;;;;5030631;28;20029;-85
2022/05/25 01:40:43;;;;;;;4.40;0.68;;;15.40;90.40;;;;;;5023872;28;20448;-85
2022/05/25 01:43:17;;;;;;;1.30;0.80;;;15.30;90.40;;;;;;5029803;28;20033;-85
2022/05/25 01:45:55;;;;;;;0.98;0.55;;;15.30;90.60;;;;;;5029075;28;20025;-85
2022/05/25 01:48:22;;;;;;;1.40;0.77;;;15.30;90.60;;;;;;5027742;28;20048;-85
2022/05/25 01:50:59;;;;;;;2.83;0.70;;;15.20;90.70;;;;;;5029262;28;20033;-85
2022/05/25 01:53:29;;;;;;;2.60;0.70;;;15.20;90.70;;;;;;5039431;28;20028;-85
2022/05/25 01:56:00;;;;;;;4.43;1.55;;;15.20;90.80;;;;;;5034729;28;20057;-85
2022/05/25 01:58:27;;;;;;;3.53;0.80;;;15.10;91.10;;;;;;5013848;28;20129;-85
2022/05/25 02:00:58;;;;;;;2.47;0.80;;;15.10;90.80;;;;;;5043156;28;20041;-85
2022/05/25 02:06:25;;;;;;;2.75;0.90;;;15.00;91.00;;;;;;5029809;28;20044;-86
2022/05/25 02:09:13;;;;;;;1.10;0.70;;;15.00;91.00;;;;;;5036187;28;20041;-86
2022/05/25 02:11:45;;;;;;;1.13;0.73;;;15.00;91.10;;;;;;5039236;28;20025;-85
2022/05/25 02:14:33;;;;;;;1.55;0.70;;;15.10;91.20;;;;;;5045319;28;20033;-85
2022/05/25 02:17:20;;;;;;;1.00;0.70;;;15.10;91.40;;;;;;5039494;28;20033;-85
2022/05/25 02:20:06;;;;;;;1.00;0.60;;;15.10;91.30;;;;;;5034227;28;20045;-87
2022/05/25 02:22:49;;;;;;;2.45;0.93;;;15.10;91.10;;;;;;5025408;28;20485;-85
2022/05/25 02:25:30;;;;;;;0.80;0.77;;;15.10;91.10;;;;;;5028853;28;20038;-85
2022/05/25 02:28:09;;;;;;;1.48;0.80;;;15.10;91.10;;;;;;5021039;28;20091;-84
2022/05/25 02:30:37;;;;;;;2.33;0.75;;;15.10;91.30;;;;;;5039269;28;20096;-85
2022/05/25 02:33:10;;;;;;;1.15;0.63;;;15.00;91.20;;;;;;5045116;28;20030;-86
2022/05/25 02:35:40;;;;;;;1.50;0.80;;;15.00;91.20;;;;;;5029625;28;20025;-84
2022/05/25 02:38:08;;;;;;;3.20;0.80;;;15.00;91.10;;;;;;5025399;28;20033;-85
2022/05/25 02:40:35;;;;;;;0.77;0.60;;;15.00;91.10;;;;;;5029452;28;20041;-86
2022/05/25 02:43:02;;;;;;;1.95;0.70;;;15.00;91.20;;;;;;5025854;28;20034;-85
2022/05/25 02:45:28;;;;;;;1.20;0.70;;;15.00;91.20;;;;;;5028282;28;20068;-85
2022/05/25 02:47:54;;;;;;;2.17;0.70;;;15.10;91.30;;;;;;5028521;28;20065;-85
2022/05/25 02:50:19;;;;;;;1.77;0.82;;;15.10;91.50;;;;;;5027538;28;20046;-87
2022/05/25 02:52:45;;;;;;;1.05;0.60;;;15.10;91.40;;;;;;5019669;28;20022;-85
2022/05/25 02:55:10;;;;;;;0.85;0.73;;;15.10;91.40;;;;;;5026021;28;20416;-85
2022/05/25 02:57:36;;;;;;;1.10;0.80;;;15.10;91.60;;;;;;5027636;28;20032;-85
2022/05/25 03:00:03;;;;;;;0.85;0.70;;;15.10;91.60;;;;;;5029579;28;20049;-84
2022/05/25 03:02:29;;;;;;;3.13;0.77;;;15.10;91.50;;;;;;5028494;28;20029;-86
2022/05/25 03:04:54;;;;;;;1.55;0.50;;;15.10;91.50;;;;;;5028019;28;20098;-84
2022/05/25 03:07:20;;;;;;;2.10;0.93;;;15.10;91.60;;;;;;5027192;28;20060;-84
2022/05/25 03:09:45;;;;;;;1.33;0.85;;;15.00;91.60;;;;;;5030114;28;20677;-84
2022/05/25 03:12:13;;;;;;;1.00;0.47;;;15.00;91.60;;;;;;5024701;28;20105;-85
2022/05/25 03:14:39;;;;;;;2.60;0.65;;;15.00;91.60;;;;;;5023470;28;20071;-85
2022/05/25 03:17:09;;;;;;;2.05;0.77;;;15.00;91.60;;;;;;5020332;28;20033;-83
2022/05/25 03:19:35;;;;;;;1.23;0.60;;;15.00;91.50;;;;;;5025754;28;20540;-84
2022/05/25 03:22:01;;;;;;;1.48;0.80;;;15.00;91.50;;;;;;5021943;28;20039;-85
2022/05/25 03:24:27;;;;;;;0.88;0.65;;;15.00;91.50;;;;;;5023872;28;20120;-86
2022/05/25 03:26:52;;;;;;;3.33;0.77;;;15.00;91.60;;;;;;5025746;28;20075;-84
2022/05/25 03:29:19;;;;;;;1.85;0.75;;;15.00;91.60;;;;;;5029140;28;20556;-85
2022/05/25 03:31:44;;;;;;;1.10;0.50;;;15.00;91.60;;;;;;5027675;28;20632;-83
2022/05/25 03:34:10;;;;;;;1.30;0.60;;;15.00;91.50;;;;;;5021619;28;20033;-84
2022/05/25 03:36:35;;;;;;;2.00;0.93;;;15.00;91.60;;;;;;5021698;28;20036;-85
2022/05/25 03:39:01;;;;;;;3.97;0.90;;;15.00;91.50;;;;;;5021908;28;20540;-83
2022/05/25 03:41:26;;;;;;;4.30;0.70;;;15.10;91.40;;;;;;5024042;28;20477;-86
2022/05/25 03:43:52;;;;;;;1.60;1.02;;;15.10;91.40;;;;;;5024026;28;20410;-85
2022/05/25 03:46:18;;;;;;;1.05;0.57;;;15.10;91.40;;;;;;5025397;28;20088;-83
2022/05/25 03:48:43;;;;;;;1.33;0.80;;;15.20;91.40;;;;;;5025605;28;20038;-86
2022/05/25 03:51:09;;;;;;;2.40;0.68;;;15.20;91.40;;;;;;5026707;28;20061;-85
2022/05/25 03:53:35;;;;;;;2.97;0.80;;;15.20;91.20;;;;;;5024853;28;20432;-83
2022/05/25 03:56:00;;;;;;;1.83;0.65;;;15.30;91.20;;;;;;5039899;28;20116;-84
2022/05/25 03:58:26;;;;;;;2.47;0.70;;;15.30;91.00;;;;;;5028538;28;20030;-85
2022/05/25 04:00:51;;;;;;;2.47;0.77;;;15.30;91.00;;;;;;5030361;28;20390;-84
2022/05/25 04:03:17;;;;;;;2.17;1.00;;;15.40;91.40;;;;;;5029252;28;20481;-84
2022/05/25 04:05:43;;;;;;;2.00;1.05;;;15.40;91.40;;;;;;5029643;28;20052;-85
2022/05/25 04:08:10;;;;;;;3.75;1.67;;;15.50;91.30;;;;;;5028816;28;20151;-87
2022/05/25 04:10:37;;;;;;;2.53;0.80;;;15.50;91.30;;;;;;5029403;28;20029;-86
2022/05/25 04:13:02;;;;;;;0.80;0.80;;;15.50;91.30;;;;;;5022914;28;20039;-85
2022/05/25 04:15:30;;;;;;;1.80;0.80;;;15.50;91.10;;;;;;5020801;28;20033;-86
2022/05/25 04:17:56;;;;;;;1.60;1.00;;;15.50;91.10;;;;;;5017774;28;20108;-85
2022/05/25 04:20:23;;;;;;;1.08;0.70;;;15.60;90.80;;;;;;5023719;28;20144;-85
2022/05/25 04:22:50;;;;;;;2.42;0.98;;;15.60;91.00;;;;;;5022230;28;20025;-85
2022/05/25 04:25:17;;;;;;;1.35;0.88;;;15.60;91.00;;;;;;5021228;28;20037;-84
2022/05/25 04:27:44;;;;;;;3.50;0.82;;;15.60;91.00;;;;;;5035386;28;20029;-84
2022/05/25 04:30:13;;;;;;;1.55;0.93;;;15.70;91.00;;;;;;5026209;28;20061;-85
2022/05/25 04:32:39;;;;;;;0.85;0.65;;;15.70;90.80;;;;;;5023657;28;20060;-85
2022/05/25 04:35:06;;;;;;;1.17;0.77;;;15.70;90.60;;;;;;5015130;28;20057;-85
2022/05/25 04:37:49;;;;;;;1.80;0.80;;;15.80;90.70;;;;;;5021888;28;20029;-86
2022/05/25 04:40:17;;;;;;;1.40;0.77;;;15.80;90.70;;;;;;5023472;28;20041;-85
2022/05/25 04:42:43;;;;;;;0.73;0.60;;;15.90;90.70;;;;;;5024181;28;20029;-85
2022/05/25 04:45:10;;;;;;;1.52;0.90;;;15.90;90.80;;;;;;5026845;28;20032;-85
2022/05/25 04:47:40;;;;;;;1.10;0.70;;;15.90;90.20;;;;;;5020964;28;20667;-85
2022/05/25 04:50:08;;;;;;;1.23;0.75;;;15.90;90.50;;;;;;5022595;28;20125;-86
2022/05/25 04:52:35;;;;;;;1.80;0.60;;;16.00;90.40;;;;;;5021527;28;20033;-84
2022/05/25 04:55:00;;;;;;;1.60;0.80;;;16.00;90.50;;;;;;5028853;28;20393;-86
2022/05/25 04:57:27;;;;;;;1.63;0.70;;;16.00;90.20;;;;;;5022556;28;20029;-88
2022/05/25 05:00:06;;;;;;;1.25;0.50;;;16.10;90.50;;;;;;5019724;28;20040;-85
2022/05/25 05:02:31;;;;;;;4.38;1.05;;;16.10;90.50;;;;;;5024364;28;20389;-86
2022/05/25 05:04:57;;;;;;;2.95;1.05;;;16.10;90.40;;;;;;5024186;28;20033;-85
2022/05/25 05:07:34;;;;;;;1.63;0.82;;;16.10;90.20;;;;;;5025999;28;20029;-84
2022/05/25 05:10:03;;;;;;;0.80;0.60;;;16.20;90.40;;;;;;5027812;28;20128;-85
2022/05/25 05:12:30;;;;;;;1.40;0.75;;;16.20;90.40;;;;;;5027333;28;20061;-84
2022/05/25 05:14:57;;;;;;;2.38;0.95;;;16.30;90.30;;;;;;5028325;28;20527;-84
2022/05/25 05:17:25;;;;;;;1.38;0.80;;;16.30;90.20;;;;;;5030591;28;20497;-85
2022/05/25 05:19:50;;;;;;;2.38;1.10;;;16.40;90.20;;;;;;5028189;28;20461;-85
2022/05/25 05:22:17;;;;;;;2.78;0.88;;;16.50;89.80;;;;;;5032495;28;20038;-84
2022/05/25 05:24:44;;;;;;;2.25;0.90;;;16.50;89.50;;;;;;5023944;28;20025;-86
2022/05/25 05:27:11;;;;;;;2.83;0.93;;;16.50;89.90;;;;;;5027150;28;20113;-85
2022/05/25 05:29:36;;;;;;;2.35;0.65;;;16.50;89.80;;;;;;5028083;28;20047;-85
2022/05/25 05:32:02;;;;;;;2.35;1.02;;;16.60;89.20;;;;;;5049469;28;20513;-85
2022/05/25 05:34:28;;;;;;;4.25;0.75;;;16.70;89.70;;;;;;5034000;28;20060;-86
2022/05/25 05:37:10;;;;;;;3.30;1.00;;;16.70;90.20;;;;;;5044283;28;20475;-85
2022/05/25 05:39:40;;;;;;;1.88;0.90;;;16.80;89.20;;;;;;5031786;28;20051;-85
2022/05/25 05:42:10;;;;;;;0.95;0.50;;;16.90;88.50;;;;;;5015191;28;20098;-84
2022/05/25 05:44:40;;;;;;;1.95;0.82;;;16.90;87.90;;;;;;5032702;28;20034;-87
2022/05/25 05:47:10;;;;;;;4.68;1.08;;;17.00;88.40;;;;;;5026851;28;20034;-85
2022/05/25 05:49:37;;;;;;;1.25;0.65;;;17.00;88.30;;;;;;5039275;28;20029;-85
2022/05/25 05:52:03;;;;;;;3.50;0.95;;;17.00;88.10;;;;;;5034053;28;20068;-85
2022/05/25 05:54:28;;;;;;;1.85;0.90;;;17.00;87.70;;;;;;5034587;28;20029;-85
2022/05/25 05:56:54;;;;;;;1.85;0.85;;;17.00;88.20;;;;;;5034559;28;20025;-86
2022/05/25 05:59:19;;;;;;;2.25;0.85;;;17.00;87.60;;;;;;5029655;28;20029;-86
2022/05/25 06:01:45;;;;;;;2.88;0.80;;;17.00;88.00;;;;;;5017458;28;20088;-86
2022/05/25 06:04:11;;;;;;;1.40;0.52;;;17.00;88.10;;;;;;5024149;28;20050;-84
2022/05/25 06:06:37;;;;;;;2.90;1.15;;;16.90;88.80;;;;;;5027627;28;20033;-85
2022/05/25 06:09:03;;;;;;;2.80;0.70;;;16.90;88.50;;;;;;5039333;28;20387;-84
2022/05/25 06:11:28;;;;;;;2.92;0.70;;;16.90;88.00;;;;;;5041951;28;20033;-84
2022/05/25 06:13:54;;;;;;;1.35;0.70;;;16.90;88.50;;;;;;5033051;28;20121;-84
2022/05/25 06:21:54;;;;;;;2.10;0.60;;;17.00;87.70;;;;;;5015099;28;20088;-78
2022/05/25 06:24:19;;;;;;;3.08;0.80;;;16.90;87.80;;;;;;5013515;28;20037;-83
2022/05/25 06:26:45;;;;;;;3.35;0.55;;;16.90;88.50;;;;;;5029138;28;20048;-83
2022/05/25 06:29:11;;;;;;;1.38;0.60;;;17.00;88.50;;;;;;5027695;28;20056;-83
2022/05/25 06:31:36;;;;;;;2.35;0.65;;;17.00;88.50;;;;;;5030681;28;20442;-85
2022/05/25 06:34:02;;;;;;;0.80;0.60;;;17.10;88.00;;;;;;5028877;28;20056;-84
2022/05/25 06:36:29;;;;;;;0.75;0.60;;;17.10;87.80;;;;;;5031074;28;20104;-83
2022/05/25 06:38:55;;;;;;;2.65;1.52;;;17.20;87.00;;;;;;5029907;28;20068;-83
2022/05/25 06:41:21;;;;;;;1.00;0.70;;;17.10;87.20;;;;;;5029272;28;20037;-85
2022/05/25 06:43:48;;;;;;;2.00;0.85;;;17.10;87.70;;;;;;5030540;28;20389;-86
2022/05/25 06:46:18;;;;;;;5.30;0.60;;;17.20;87.00;;;;;;5032558;28;20025;-83
2022/05/25 06:48:44;;;;;;;1.65;0.50;;;17.20;87.60;;;;;;5030698;28;20021;-83
2022/05/25 06:51:11;;;;;;;2.92;0.90;;;17.30;86.70;;;;;;5020888;28;20075;-85
2022/05/25 06:53:37;;;;;;;1.40;0.50;;;17.40;87.00;;;;;;5023994;28;20060;-84
2022/05/25 06:56:02;;;;;;;2.47;0.80;;;17.50;86.70;;;;;;5025701;28;20076;-84
2022/05/25 06:58:28;;;;;;;4.03;1.08;;;17.60;86.20;;;;;;5019314;28;20055;-83
2022/05/25 07:00:53;;;;;;;1.38;0.70;;;17.70;85.80;;;;;;5029129;28;20037;-86
2022/05/25 07:03:20;;;;;;;1.73;0.60;;;17.80;86.10;;;;;;5028919;28;20094;-86
2022/05/25 07:05:46;;;;;;;7.57;0.80;;;17.90;84.50;;;;;;5030831;28;20108;-84
2022/05/25 07:08:11;;;;;;;4.30;0.90;;;17.90;85.00;;;;;;5019782;28;20625;-83
2022/05/25 07:10:37;;;;;;;0.82;0.60;;;17.90;85.40;;;;;;5022456;28;20036;-83
2022/05/25 07:13:03;;;;;;;1.70;0.60;;;17.90;85.10;;;;;;5026038;28;20079;-84
2022/05/25 07:15:28;;;;;;;1.15;0.70;;;17.80;85.40;;;;;;5022021;28;20148;-83
2022/05/25 07:17:54;;;;;;;4.82;0.70;;;17.90;85.70;;;;;;5030540;28;20108;-84
2022/05/25 07:20:19;;;;;;;2.08;0.75;;;18.00;85.00;;;;;;5030391;28;20478;-84
2022/05/25 07:22:45;;;;;;;0.90;0.70;;;18.00;84.80;;;;;;5028531;28;20034;-84
2022/05/25 07:25:10;;;;;;;1.65;0.70;;;17.80;85.40;;;;;;5029450;28;20030;-84
2022/05/25 07:27:36;;;;;;;0.75;0.50;;;17.90;85.60;;;;;;5019670;28;20426;-83
2022/05/25 07:30:01;;;;;;;2.95;1.33;;;18.00;86.10;;;;;;5011150;28;20837;-84
2022/05/25 07:32:28;;;;;;;1.25;0.75;;;18.10;84.70;;;;;;5025395;28;20044;-83
2022/05/25 07:35:02;;;;;;;1.80;0.55;;;18.00;83.60;;;;;;5028588;28;20152;-84
2022/05/25 07:37:34;;;;;;;1.63;0.80;;;18.10;84.30;;;;;;5026972;28;20568;-83
2022/05/25 07:40:05;;;;;;;4.07;0.80;;;18.10;85.00;;;;;;5009908;28;20130;-85
2022/05/25 07:42:31;;;;;;;5.35;0.60;;;18.10;83.90;;;;;;5012080;28;20045;-84
2022/05/25 07:45:00;;;;;;;2.22;1.15;;;18.10;84.70;;;;;;5015764;28;20103;-86
2022/05/25 07:47:28;;;;;;;2.15;0.90;;;18.20;83.80;;;;;;5019675;28;20461;-85
2022/05/25 07:49:54;;;;;;;0.90;0.60;;;18.30;84.10;;;;;;5023891;28;20103;-85
2022/05/25 07:52:22;;;;;;;7.72;2.10;;;18.30;83.00;;;;;;5027726;28;20033;-83
2022/05/25 07:54:48;;;;;;;1.33;0.60;;;18.30;83.50;;;;;;5043741;28;20033;-84
2022/05/25 07:57:14;;;;;;;4.25;1.30;;;18.30;83.90;;;;;;5028357;28;20080;-85
2022/05/25 07:59:41;;;;;;;1.35;0.70;;;18.40;83.00;;;;;;5026830;28;20033;-84
2022/05/25 08:07:53;;;;;;;1.50;0.55;;;18.70;81.80;;;;;;5028077;28;20529;-88
2022/05/25 08:10:24;;;;;;;2.42;0.80;;;18.90;82.40;;;;;;5028898;28;20034;-85
2022/05/25 08:12:55;;;;;;;1.30;0.60;;;19.00;80.90;;;;;;5026794;28;20140;-83
2022/05/25 08:15:21;;;;;;;1.15;0.73;;;19.20;82.30;;;;;;5027558;28;20034;-84
2022/05/25 08:17:46;;;;;;;4.43;0.70;;;19.30;82.70;;;;;;5027442;28;20033;-85
2022/05/25 08:20:12;;;;;;;10.63;0.93;;;19.40;81.50;;;;;;5027167;28;20092;-83
2022/05/25 08:22:38;;;;;;;1.45;0.70;;;19.50;80.20;;;;;;5027628;28;20030;-84
2022/05/25 08:25:06;;;;;;;2.20;0.70;;;19.60;79.80;;;;;;5026490;28;20477;-83
2022/05/25 08:27:33;;;;;;;1.38;1.00;;;19.60;80.70;;;;;;5028207;28;20033;-83
2022/05/25 08:29:58;;;;;;;4.38;0.50;;;19.60;78.60;;;;;;5047413;28;20025;-84
2022/05/25 08:32:24;;;;;;;1.13;0.63;;;19.40;78.70;;;;;;5032081;28;20481;-83
2022/05/25 08:34:50;;;;;;;1.00;0.50;;;19.40;80.40;;;;;;5034013;28;20030;-86
2022/05/25 08:37:16;;;;;;;2.63;0.52;;;19.40;79.70;;;;;;5033200;28;20427;-85
2022/05/25 08:39:44;;;;;;;6.03;0.57;;;19.40;79.90;;;;;;5037802;28;20474;-83
2022/05/25 08:42:15;;;;;;;2.88;0.73;;;19.50;79.40;;;;;;5037272;28;20030;-82
2022/05/25 08:44:43;;;;;;;0.98;0.52;;;19.60;79.20;;;;;;5040690;28;20033;-82
2022/05/25 08:47:12;;;;;;;0.88;0.55;;;19.70;80.50;;;;;;5031944;28;20025;-86
2022/05/25 08:49:42;;;;;;;1.30;0.80;;;19.80;79.70;;;;;;5030902;28;20034;-83
2022/05/25 08:52:38;;;;;;;1.52;0.80;;;19.90;79.10;;;;;;5029959;28;20036;-84
2022/05/25 08:55:08;;;;;;;2.10;0.50;;;20.20;78.40;;;;;;5032641;28;20037;-83
2022/05/25 08:57:39;;;;;;;2.78;0.70;;;20.40;76.90;;;;;;5035764;28;20106;-85
2022/05/25 09:00:17;;;;;;;1.27;0.70;;;20.60;76.20;;;;;;5036534;28;20045;-84
2022/05/25 09:03:01;;;;;;;2.08;0.75;;;20.70;76.80;;;;;;5055282;28;20029;-86
2022/05/25 09:05:38;;;;;;;2.65;0.77;;;20.90;74.80;;;;;;5054053;28;20029;-84
2022/05/25 09:08:29;;;;;;;1.77;0.50;;;21.00;75.20;;;;;;5023137;28;20022;-83
2022/05/25 09:11:07;;;;;;;0.68;0.50;;;21.10;72.90;;;;;;5029719;28;20040;-84
2022/05/25 09:13:37;;;;;;;2.55;0.80;;;21.20;72.70;;;;;;5018241;28;20347;-82
2022/05/25 09:16:18;;;;;;;1.23;0.60;;;21.20;72.10;;;;;;5032525;28;20048;-83
2022/05/25 09:19:03;;;;;;;3.22;0.85;;;21.10;73.30;;;;;;5020151;28;20033;-84
2022/05/25 09:21:36;;;;;;;2.50;0.50;;;21.20;67.80;;;;;;5030965;28;20095;-85
2022/05/25 09:24:15;;;;;;;2.03;0.60;;;21.30;68.80;;;;;;5025537;28;20038;-84
2022/05/25 09:26:42;;;;;;;1.25;0.40;;;21.40;72.20;;;;;;5028780;28;20085;-83
2022/05/25 09:29:11;;;;;;;0.77;0.40;;;21.50;68.90;;;;;;5031748;28;20029;-84
2022/05/25 09:31:42;;;;;;;1.20;0.55;;;21.50;68.50;;;;;;5032736;28;20025;-83
2022/05/25 09:34:13;;;;;;;1.20;0.40;;;21.40;67.30;;;;;;5029915;28;20458;-83
2022/05/25 09:37:08;;;;;;;2.03;0.50;;;21.30;70.00;;;;;;5029288;28;20116;-82
2022/05/25 09:39:38;;;;;;;1.77;0.40;;;21.20;67.90;;;;;;5047602;28;20038;-83
2022/05/25 09:42:06;;;;;;;1.55;0.50;;;21.20;70.50;;;;;;5031159;28;20025;-82
2022/05/25 09:44:32;;;;;;;0.63;0.50;;;21.30;68.60;;;;;;5024750;28;20500;-83
2022/05/25 09:47:05;;;;;;;1.42;0.80;;;21.30;70.30;;;;;;5029066;28;20088;-83
2022/05/25 09:49:43;;;;;;;1.90;0.47;;;21.40;69.50;;;;;;5031370;28;20071;-85
2022/05/25 09:52:27;;;;;;;1.55;0.50;;;21.70;70.40;;;;;;5026452;28;20034;-84
2022/05/25 09:55:03;;;;;;;2.22;0.50;;;22.00;71.30;;;;;;5030890;28;20507;-84
2022/05/25 09:57:40;;;;;;;1.90;0.50;;;22.20;69.80;;;;;;5030390;28;20021;-85
2022/05/25 10:00:21;;;;;;;2.40;0.40;;;22.30;68.70;;;;;;5034654;28;20476;-84
2022/05/25 10:02:46;;;;;;;1.35;0.52;;;22.40;68.30;;;;;;5050128;28;20061;-84
2022/05/25 10:05:23;;;;;;;3.42;0.60;;;22.50;66.30;;;;;;5032150;28;20048;-84
2022/05/25 10:08:15;;;;;;;0.80;0.40;;;22.60;67.60;;;;;;5030870;28;20064;-83
2022/05/25 10:10:55;;;;;;;1.52;0.55;;;22.70;70.90;;;;;;5023922;28;20112;-84
2022/05/25 10:13:25;;;;;;;1.60;0.47;;;22.90;65.00;;;;;;5030834;28;20212;-83
2022/05/25 10:15:52;;;;;;;1.00;0.40;;;23.00;66.10;;;;;;5038056;28;20033;-83
2022/05/25 10:18:41;;;;;;;2.90;0.40;;;23.00;66.70;;;;;;5028964;28;20034;-84
2022/05/25 10:21:14;;;;;;;1.80;0.50;;;23.10;66.20;;;;;;5028871;28;20059;-84
2022/05/25 10:23:42;;;;;;;1.17;0.45;;;23.30;65.10;;;;;;5028145;28;20048;-84
2022/05/25 10:26:17;;;;;;;2.88;0.68;;;23.40;63.20;;;;;;5030369;28;20025;-84
2022/05/25 10:28:58;;;;;;;0.98;0.40;;;23.40;65.30;;;;;;5029803;28;20635;-84
2022/05/25 10:36:56;;;;;;;1.50;0.50;;;23.60;63.20;;;;;;5028982;28;20057;-82
2022/05/25 10:39:28;;;;;;;1.00;0.40;;;23.40;62.90;;;;;;5030732;28;20026;-81
2022/05/25 10:42:00;;;;;;;1.63;0.40;;;23.20;63.70;;;;;;5029265;28;20032;-83
2022/05/25 10:44:29;;;;;;;2.15;0.57;;;23.10;68.80;;;;;;5028598;28;20037;-84
2022/05/25 10:47:01;;;;;;;2.63;0.75;;;23.20;66.00;;;;;;5027815;28;20475;-83
2022/05/25 10:49:33;;;;;;;3.58;0.68;;;23.20;64.00;;;;;;5030891;28;20045;-82
2022/05/25 10:52:09;;;;;;;0.40;0.30;;;23.00;64.10;;;;;;5028340;28;20047;-85
2022/05/25 10:54:45;;;;;;;1.08;0.40;;;23.00;63.70;;;;;;5028076;28;20301;-83
2022/05/25 10:57:29;;;;;;;2.83;0.50;;;23.10;65.00;;;;;;5029212;28;20034;-83
2022/05/25 11:00:03;;;;;;;2.70;0.50;;;23.30;62.70;;;;;;5030293;28;20041;-82
2022/05/25 11:03:06;;;;;;;1.80;0.30;;;23.30;63.60;;;;;;5029613;28;20033;-81
2022/05/25 11:06:04;;;;;;;0.95;0.45;;;23.20;64.90;;;;;;5028946;28;20025;-82
2022/05/25 11:08:52;;;;;;;0.85;0.40;;;23.00;62.70;;;;;;5030601;28;20139;-82
2022/05/25 11:11:31;;;;;;;0.70;0.68;;;22.70;64.50;;;;;;5028651;28;20041;-83
2022/05/25 11:14:16;;;;;;;1.00;0.40;;;22.50;64.50;;;;;;5029746;28;20030;-82
2022/05/25 11:16:55;;;;;;;0.77;0.50;;;22.20;65.90;;;;;;5027311;28;20127;-83
2022/05/25 11:19:32;;;;;;;3.92;0.52;;;22.20;65.60;;;;;;5028720;28;20059;-83
2022/05/25 11:22:22;;;;;;;2.42;0.70;;;22.10;65.40;;;;;;5023766;28;20026;-83
2022/05/25 11:25:14;;;;;;;1.73;0.45;;;22.10;66.20;;;;;;5034454;28;20044;-82
2022/05/25 11:27:49;;;;;;;2.43;0.80;;;22.10;67.80;;;;;;5029439;28;20041;-82
2022/05/25 11:30:42;;;;;;;0.85;0.43;;;22.30;64.20;;;;;;5027787;28;20133;-82
2022/05/25 11:33:59;;;;;;;1.73;0.40;;;22.40;65.80;;;;;;5029159;28;20029;-85
2022/05/25 11:36:34;;;;;;;1.83;0.32;;;22.70;62.20;;;;;;5017919;28;20494;-82
2022/05/25 11:39:28;;;;;;;0.50;0.30;;;23.00;64.90;;;;;;5028678;28;20029;-84
2022/05/25 11:42:12;;;;;;;1.17;0.45;;;23.10;63.90;;;;;;5030229;28;20033;-83
2022/05/25 11:44:43;;;;;;;2.13;0.45;;;23.30;63.10;;;;;;5020513;28;20037;-83
2022/05/25 11:47:35;;;;;;;1.02;0.32;;;23.40;63.00;;;;;;5031799;28;20026;-84
2022/05/25 11:51:08;;;;;;;6.30;0.65;;;23.30;62.30;;;;;;5046428;28;20041;-83
2022/05/25 11:53:41;;;;;;;1.20;0.40;;;23.20;62.30;;;;;;4976849;28;20129;-83
2022/05/25 11:56:32;;;;;;;1.48;0.50;;;23.00;63.00;;;;;;5024343;28;20042;-83
2022/05/25 11:59:19;;;;;;;2.00;0.40;;;22.70;62.00;;;;;;5034169;28;20041;-84
2022/05/25 12:02:04;;;;;;;3.80;0.40;;;22.50;63.10;;;;;;5025689;28;20445;-83
2022/05/25 12:04:59;;;;;;;0.50;0.25;;;22.50;63.20;;;;;;5035399;28;20489;-82
2022/05/25 12:07:46;;;;;;;1.48;0.30;;;22.60;62.40;;;;;;5034315;28;20029;-83
2022/05/25 12:10:42;;;;;;;1.40;0.30;;;22.80;62.40;;;;;;5042586;28;20068;-82
2022/05/25 12:13:33;;;;;;;2.40;0.60;;;23.20;64.20;;;;;;5053957;28;20053;-80
2022/05/25 12:16:14;;;;;;;1.30;0.22;;;23.60;60.20;;;;;;5049256;28;20385;-81
2022/05/25 12:19:10;;;;;;;0.70;0.30;;;23.90;58.30;;;;;;5019725;28;20029;-86
2022/05/25 12:21:38;;;;;;;2.20;0.30;;;24.10;59.80;;;;;;5030570;28;20116;-83
2022/05/25 12:24:11;;;;;;;1.60;0.40;;;24.40;59.30;;;;;;5031144;28;20496;-82
2022/05/25 12:26:38;;;;;;;1.75;0.30;;;24.50;57.70;;;;;;5030052;28;20099;-83
2022/05/25 12:29:25;;;;;;;1.48;0.35;;;24.70;57.80;;;;;;5033825;28;20104;-83
2022/05/25 12:31:55;;;;;;;2.08;0.30;;;24.60;57.60;;;;;;5023636;28;20030;-83
2022/05/25 12:34:34;;;;;;;0.98;0.45;;;24.40;57.90;;;;;;5030509;28;20037;-82
2022/05/25 12:37:03;;;;;;;2.67;0.93;;;24.10;58.40;;;;;;5021395;28;20026;-83
2022/05/25 12:39:46;;;;;;;0.63;0.30;;;23.60;58.50;;;;;;5035756;28;20694;-83
2022/05/25 12:42:24;;;;;;;1.15;0.30;;;23.40;60.20;;;;;;5036216;28;20029;-84
2022/05/25 12:50:55;;;;;;;4.22;0.43;;;23.90;61.40;;;;;;5030947;28;20040;-83
2022/05/25 12:53:39;;;;;;;0.67;0.30;;;24.20;61.00;;;;;;5022384;28;20042;-84
2022/05/25 12:56:19;;;;;;;0.63;0.30;;;24.50;58.50;;;;;;5015087;28;20034;-84
2022/05/25 12:58:47;;;;;;;4.22;0.57;;;24.40;56.80;;;;;;5025130;28;20108;-83
2022/05/25 13:01:22;;;;;;;1.15;0.30;;;24.30;56.00;;;;;;5031295;28;20124;-84
2022/05/25 13:03:47;;;;;;;1.95;0.30;;;24.00;56.30;;;;;;5033872;28;20108;-83
2022/05/25 13:06:17;;;;;;;2.20;0.30;;;23.90;57.70;;;;;;5024987;28;20434;-83
2022/05/25 13:08:45;;;;;;;0.40;0.20;;;24.00;58.70;;;;;;5045448;28;20068;-83
2022/05/25 13:11:28;;;;;;;0.70;0.22;;;24.30;57.30;;;;;;5025346;28;20041;-83
2022/05/25 13:13:54;;;;;;;1.77;0.30;;;24.40;55.60;;;;;;5030129;28;20026;-82
2022/05/25 13:16:42;;;;;;;1.33;0.30;;;24.50;57.60;;;;;;5024150;28;20086;-80
2022/05/25 13:19:32;;;;;;;3.92;0.30;;;24.70;58.60;;;;;;5046098;28;20658;-82
2022/05/25 13:22:10;;;;;;;2.05;0.73;;;24.90;55.50;;;;;;5029207;28;20033;-86
2022/05/25 13:24:45;;;;;;;1.27;0.32;;;25.00;55.50;;;;;;5029385;28;20474;-83
2022/05/25 13:27:33;;;;;;;0.43;0.20;;;25.00;55.50;;;;;;5042372;28;20034;-83
2022/05/25 13:30:18;;;;;;;1.67;0.22;;;25.10;55.00;;;;;;5013477;28;20488;-85
2022/05/25 13:32:51;;;;;;;1.35;0.32;;;25.10;52.50;;;;;;5036990;28;20025;-84
2022/05/25 13:35:19;;;;;;;2.13;0.30;;;24.90;54.10;;;;;;5019395;28;20191;-82
2022/05/25 13:38:21;;;;;;;1.27;0.22;;;24.80;52.70;;;;;;5037046;28;20037;-82
2022/05/25 13:40:51;;;;;;;1.50;0.20;;;24.60;54.00;;;;;;5036239;28;20046;-84